Data for 05/12/2016

Time Sea-Level Adjusted Pressure Absolute Pressure Temperature Relative Humidity Dew Point   
(mb) (inHg) (mb) (inHg) (C) (F) (%) (C) (F)
00:05 1023 30.21 853 25.19 3.5 38.3 68 -1.8 28.8
00:10 1023 30.21 853 25.19 3.5 38.3 67 -1.9 28.5
00:15 1023 30.21 853 25.19 3.6 38.4 67 -2 28.3
00:20 1023 30.21 853 25.19 3.7 38.7 67 -1.9 28.5
00:25 1023 30.21 852 25.16 3.7 38.7 66 -2 28.4
00:30 1023 30.21 852 25.16 3.7 38.7 66 -2 28.4
00:35 1023 30.21 852 25.16 3.6 38.4 67 -1.9 28.5
00:40 1023 30.21 852 25.16 3.5 38.2 67 -2 28.3
00:45 1023 30.21 852 25.16 3.4 38.2 67 -2.1 28.3
00:50 1023 30.21 852 25.16 3.4 38.1 68 -2 28.4
00:55 1023 30.21 852 25.16 3.3 37.9 68 -2.1 28.3
01:00 1023 30.21 852 25.16 3.2 37.7 68 -2.2 28.1
01:05 1023 30.21 852 25.16 3.2 37.8 69 -2 28.4
01:10 1023 30.21 852 25.16 3.1 37.6 67 -2.3 27.8
01:15 1023 30.21 852 25.16 3.3 38 66 -2.3 27.8
01:20 1023 30.21 852 25.16 3.6 38.5 65 -2.4 27.6
01:25 1023 30.21 852 25.16 3.9 39 63 -2.5 27.4
01:30 1023 30.21 852 25.16 4.1 39.4 62 -2.5 27.5
01:35 1023 30.21 852 25.16 4.1 39.4 63 -2.3 27.9
01:40 1023 30.21 852 25.16 3.8 38.8 64 -2.3 27.8
01:45 1023 30.21 852 25.16 3.5 38.3 66 -2.3 27.9
01:50 1023 30.21 852 25.16 3.3 38 67 -2.2 28
01:55 1023 30.21 852 25.16 3.3 37.9 66 -2.4 27.6
02:00 1023 30.21 852 25.16 3.5 38.3 65 -2.4 27.7
02:05 1023 30.21 852 25.16 3.6 38.5 64 -2.5 27.5
02:10 1023 30.21 852 25.16 3.7 38.6 65 -2.4 27.7
02:15 1023 30.21 852 25.16 3.5 38.4 66 -2.3 27.9
02:20 1023 30.21 852 25.16 3.3 38 66 -2.4 27.7
02:25 1023 30.21 852 25.16 3.4 38.1 65 -2.5 27.4
02:30 1023 30.21 852 25.16 3.5 38.3 65 -2.5 27.5
02:35 1023 30.21 852 25.16 3.4 38.2 65 -2.5 27.5
02:40 1023 30.21 852 25.16 3.5 38.2 65 -2.5 27.4
02:45 1023 30.21 852 25.16 3.3 38 65 -2.5 27.5
02:50 1023 30.21 852 25.16 3.3 38 66 -2.4 27.7
02:55 1023 30.21 852 25.16 3.3 37.9 65 -2.6 27.3
03:00 1023 30.21 852 25.16 3.3 37.9 65 -2.6 27.4
03:05 1023 30.21 852 25.16 3.4 38.1 65 -2.5 27.4
03:10 1023 30.21 852 25.16 3.5 38.3 64 -2.6 27.3
03:15 1023 30.21 852 25.16 3.4 38.1 64 -2.8 27
03:20 1023 30.21 852 25.16 3.4 38.2 64 -2.6 27.3
03:25 1023 30.21 852 25.16 3.3 38 65 -2.6 27.4
03:30 1023 30.21 852 25.16 3.2 37.7 66 -2.6 27.2
03:35 1023 30.21 852 25.16 3.1 37.6 65 -2.8 26.9
03:40 1023 30.21 852 25.16 3.2 37.7 65 -2.8 26.9
03:45 1023 30.21 852 25.16 3.1 37.6 65 -2.8 26.9
03:50 1023 30.21 852 25.16 3.1 37.6 65 -2.9 26.8
03:55 1023 30.21 852 25.16 3 37.3 67 -2.6 27.3
04:00 1023 30.21 852 25.16 2.7 36.8 68 -2.7 27.1
04:05 1023 30.21 852 25.16 2.4 36.3 69 -2.8 27
04:10 1023 30.21 852 25.16 2.4 36.2 68 -2.9 26.9
04:15 1023 30.21 852 25.16 2.6 36.7 67 -2.9 26.8
04:20 1023 30.21 852 25.16 2.6 36.7 67 -2.8 27
04:25 1022 30.18 852 25.16 2.5 36.5 68 -2.9 26.8
04:30 1023 30.21 852 25.16 2.4 36.3 67 -3 26.5
04:35 1023 30.21 852 25.16 2.5 36.5 67 -3.1 26.5
04:40 1023 30.21 852 25.16 2.6 36.6 66 -3.1 26.4
04:45 1023 30.21 852 25.16 2.6 36.8 65 -3.3 26
04:50 1023 30.21 852 25.16 2.9 37.2 64 -3.2 26.3
04:55 1023 30.21 852 25.16 2.9 37.2 65 -2.9 26.7
05:00 1023 30.21 852 25.16 2.6 36.7 66 -3 26.6
05:05 1023 30.21 852 25.16 2.5 36.5 66 -3.2 26.2
05:10 1023 30.21 852 25.16 2.8 37 64 -3.4 25.9
05:15 1023 30.21 852 25.16 3.1 37.5 62 -3.4 25.9
05:20 1023 30.21 852 25.16 3.2 37.8 62 -3.5 25.8
05:25 1023 30.21 852 25.16 3.3 37.9 62 -3.4 26
05:30 1023 30.21 852 25.16 3.1 37.7 63 -3.3 26.1
05:35 1023 30.21 852 25.16 3.1 37.5 64 -3.2 26.3
05:40 1023 30.21 852 25.16 2.8 37.1 64 -3.2 26.2
05:45 1023 30.21 852 25.16 2.9 37.2 65 -3.1 26.5
05:50 1023 30.21 852 25.16 2.9 37.3 65 -3.1 26.4
05:55 1023 30.21 852 25.16 3.3 38 62 -3.3 26.1
06:00 1023 30.21 852 25.16 3.7 38.6 61 -3.1 26.4
06:05 1023 30.21 852 25.16 3.9 39.1 61 -3 26.6
06:10 1023 30.21 852 25.16 4.2 39.5 59 -3.1 26.5
06:15 1023 30.21 852 25.16 4.5 40.1 56 -3.5 25.8
06:20 1023 30.21 852 25.16 4.7 40.5 56 -3.4 25.9
06:25 1023 30.21 852 25.16 5.2 41.4 55 -3.1 26.3
06:30 1023 30.21 852 25.16 5.4 41.7 54 -3.1 26.4
06:35 1022 30.18 852 25.16 5.6 42 54 -2.9 26.7
06:40 1022 30.18 852 25.16 5.4 41.8 55 -2.9 26.8
06:45 1022 30.18 852 25.16 5.5 42 54 -3.1 26.4
06:50 1022 30.18 852 25.16 6.2 43.1 53 -2.8 27
06:55 1022 30.18 852 25.16 6.4 43.4 51 -2.9 26.7
07:00 1022 30.18 852 25.16 6.4 43.5 51 -3 26.6
07:05 1022 30.18 852 25.16 6.6 43.9 50 -3 26.7
07:10 1022 30.18 852 25.16 7 44.5 49 -3.1 26.4
07:15 1022 30.18 852 25.16 7.1 44.7 48 -3 26.5
07:20 1022 30.18 852 25.16 7.8 46 46 -3 26.6
07:25 1022 30.18 852 25.16 8.4 47.1 46 -2.4 27.6
07:30 1022 30.18 852 25.16 8.8 47.8 45 -2.5 27.5
07:35 1022 30.18 852 25.16 8.9 48 43 -2.9 26.7
07:40 1022 30.18 852 25.16 9.1 48.3 43 -2.9 26.8
07:45 1022 30.18 852 25.16 8.8 47.9 44 -2.7 27.2
07:50 1022 30.18 852 25.16 8.9 48 43 -2.8 26.9
07:55 1022 30.18 852 25.16 9.5 49.1 42 -2.7 27.1
08:00 1022 30.18 852 25.16 10.3 50.5 42 -2.1 28.3
08:05 1022 30.18 852 25.16 10.2 50.4 41 -2.4 27.7
08:10 1022 30.18 852 25.16 10.2 50.3 41 -2.4 27.7
08:15 1022 30.18 852 25.16 11 51.7 39 -2.5 27.5
08:20 1022 30.18 852 25.16 11.2 52.2 38 -2.5 27.6
08:25 1022 30.18 852 25.16 11.4 52.6 39 -1.9 28.6
08:30 1022 30.18 852 25.16 11.7 53 39 -1.9 28.5
08:35 1022 30.18 852 25.16 12.1 53.7 37 -2 28.4
08:40 1022 30.18 851 25.13 11.9 53.4 40 -1.3 29.6
08:45 1022 30.18 851 25.13 12.6 54.7 40 -0.6 30.8
08:50 1022 30.18 851 25.13 12.7 54.8 39 -0.9 30.4
08:55 1022 30.18 851 25.13 12.4 54.4 39 -1.2 29.8
09:00 1022 30.18 851 25.13 12.8 55 35 -2.2 28
09:05 1022 30.18 851 25.13 12.8 55 35 -2.1 28.2
09:10 1022 30.18 851 25.13 13.7 56.6 33 -2.2 28.1
09:15 1022 30.18 851 25.13 14.4 58 31 -2.4 27.7
09:20 1022 30.18 851 25.13 14.1 57.4 31 -2.5 27.5
09:25 1022 30.18 851 25.13 13.9 57.1 32 -2.6 27.4
09:30 1022 30.18 851 25.13 14.1 57.4 32 -2.4 27.6
09:35 1022 30.18 851 25.13 14.3 57.7 32 -2.2 28.1
09:40 1022 30.18 851 25.13 14.8 58.6 31 -2.1 28.2
09:45 1022 30.18 851 25.13 14.8 58.7 31 -1.9 28.7
09:50 1022 30.18 851 25.13 15.3 59.5 31 -1.5 29.3
09:55 1022 30.18 851 25.13 15 59 28 -3.1 26.4
10:00 1022 30.18 851 25.13 14.6 58.3 30 -2.8 26.9
10:05 1022 30.18 851 25.13 14.8 58.7 32 -1.8 28.8
10:10 1022 30.18 851 25.13 15.5 59.8 29 -2.3 27.9
10:15 1021 30.15 851 25.13 15.2 59.4 31 -1.6 29.1
10:20 1021 30.15 851 25.13 15.8 60.4 29 -1.9 28.5
10:25 1021 30.15 851 25.13 15.5 59.8 28 -2.9 26.8
10:30 1021 30.15 851 25.13 15.7 60.2 29 -2.1 28.2
10:35 1021 30.15 851 25.13 16.5 61.7 30 -1.2 29.8
10:40 1021 30.15 851 25.13 17.3 63.1 26 -2.5 27.6
10:45 1021 30.15 851 25.13 17.1 62.7 27 -2 28.4
10:50 1021 30.15 851 25.13 16.5 61.8 30 -1.2 29.9
10:55 1021 30.15 851 25.13 16.8 62.2 30 -0.9 30.3
11:00 1021 30.15 851 25.13 16.8 62.2 28 -1.6 29
11:05 1021 30.15 850 25.1 16.6 61.8 32 -0.2 31.6
11:10 1021 30.15 850 25.1 17.4 63.4 28 -1 30.3
11:15 1021 30.15 850 25.1 17.5 63.4 28 -1.1 30.1
11:20 1021 30.15 850 25.1 17.4 63.4 29 -0.6 31
11:25 1021 30.15 850 25.1 18 64.4 30 0.1 32.2
11:30 1021 30.15 850 25.1 18.2 64.7 28 -0.3 31.4
11:35 1021 30.15 850 25.1 18 64.5 30 0.2 32.4
11:40 1021 30.15 850 25.1 18.5 65.3 28 -0.1 31.8
11:45 1021 30.15 850 25.1 18.3 65 29 -0.1 31.9
11:50 1021 30.15 850 25.1 18.5 65.4 26 -1.1 30
11:55 1021 30.15 850 25.1 18.9 66 26 -0.6 30.9
12:00 1021 30.15 850 25.1 19.7 67.5 25 -0.6 30.9
12:05 1021 30.15 850 25.1 19.6 67.4 25 -1 30.1
12:10 1021 30.15 850 25.1 19.1 66.4 24 -1.6 29.2
12:15 1021 30.15 850 25.1 19 66.2 24 -2.2 28.1
12:20 1021 30.15 850 25.1 19.3 66.7 24 -1.7 29
12:25 1021 30.15 850 25.1 19.6 67.3 25 -0.9 30.4
12:30 1020 30.12 850 25.1 19.9 67.8 23 -1.7 29
12:35 1020 30.12 850 25.1 20 68 23 -1.7 28.9
12:40 1020 30.12 850 25.1 20.4 68.7 22 -1.6 29.1
12:45 1020 30.12 849 25.07 20.2 68.3 20 -3.2 26.3
12:50 1020 30.12 849 25.07 20 68 23 -1.5 29.3
12:55 1020 30.12 849 25.07 19.8 67.7 18 -5.3 22.5
13:00 1020 30.12 849 25.07 19.4 67 22 -2.9 26.7
13:05 1020 30.12 849 25.07 19.9 67.8 18 -4.7 23.6
13:10 1020 30.12 849 25.07 19.5 67.2 18 -5.5 22.1
13:15 1020 30.12 849 25.07 18.9 66 20 -4.5 23.8
13:20 1020 30.12 849 25.07 19.2 66.6 18 -5.5 22
13:25 1020 30.12 849 25.07 18.8 65.8 22 -3.5 25.6
13:30 1020 30.12 849 25.07 18.8 65.8 23 -2.6 27.4
13:35 1020 30.12 849 25.07 19.1 66.4 22 -3.2 26.3
13:40 1020 30.12 849 25.07 19 66.2 22 -3.2 26.2
13:45 1020 30.12 849 25.07 19.1 66.3 23 -2.4 27.6
13:50 1020 30.12 849 25.07 18.8 65.8 22 -3.3 26
13:55 1020 30.12 849 25.07 18.7 65.6 19 -5.1 22.8
14:00 1020 30.12 849 25.07 19 66.1 22 -3.3 26.1
14:05 1020 30.12 849 25.07 19.6 67.3 22 -2.8 26.9
14:10 1020 30.12 849 25.07 19.9 67.8 20 -3.9 25
14:15 1019 30.09 849 25.07 19.4 66.9 21 -3.4 25.9
14:20 1019 30.09 849 25.07 19 66.2 22 -3.4 25.9
14:25 1019 30.09 849 25.07 19.2 66.6 21 -3.6 25.5
14:30 1019 30.09 849 25.07 19.3 66.8 21 -3.7 25.3
14:35 1019 30.09 849 25.07 19.5 67.1 21 -3 26.6
14:40 1019 30.09 849 25.07 19.7 67.4 20 -3.7 25.4
14:45 1019 30.09 848 25.04 19.5 67.1 22 -2.8 27
14:50 1019 30.09 848 25.04 19.4 66.9 21 -3.4 25.8
14:55 1019 30.09 848 25.04 19.4 66.8 20 -3.8 25.2
15:00 1019 30.09 848 25.04 19.6 67.3 20 -3.5 25.7
15:05 1019 30.09 848 25.04 19.6 67.2 21 -3 26.7
15:10 1019 30.09 848 25.04 19.3 66.7 22 -2.9 26.8
15:15 1019 30.09 848 25.04 19.1 66.3 23 -2.6 27.2
15:20 1019 30.09 848 25.04 19.6 67.2 23 -2 28.3
15:25 1019 30.09 848 25.04 20 67.9 23 -1.5 29.3
15:30 1019 30.09 848 25.04 19.3 66.8 25 -1.2 29.9
15:35 1019 30.09 848 25.04 19 66.3 23 -2.7 27.2
15:40 1019 30.09 848 25.04 19 66.2 23 -2.7 27.2
15:45 1019 30.09 848 25.04 18.4 65.2 23 -3 26.5
15:50 1019 30.09 848 25.04 18.1 64.6 26 -1.7 29
15:55 1019 30.09 848 25.04 18.2 64.7 27 -1.2 29.8
16:00 1019 30.09 849 25.07 18.2 64.8 24 -2.4 27.8
16:05 1019 30.09 849 25.07 18 64.4 26 -1.6 29.1
16:10 1019 30.09 848 25.04 17.6 63.6 25 -2.7 27.2
16:15 1019 30.09 848 25.04 18.5 65.3 24 -2.1 28.2
16:20 1019 30.09 848 25.04 18.5 65.3 25 -1.6 29.2
16:25 1019 30.09 848 25.04 18.2 64.8 25 -1.7 28.9
16:30 1019 30.09 848 25.04 18.2 64.7 24 -2.8 26.9
16:35 1019 30.09 848 25.04 18.1 64.5 25 -2 28.3
16:40 1019 30.09 848 25.04 18 64.4 26 -1.4 29.5
16:45 1019 30.09 848 25.04 18.1 64.6 27 -1.1 30
16:50 1019 30.09 848 25.04 18.1 64.7 26 -1.5 29.2
16:55 1019 30.09 848 25.04 18.2 64.7 25 -2.1 28.3
17:00 1019 30.09 848 25.04 18.1 64.5 26 -1.6 29.2
17:05 1019 30.09 848 25.04 17.8 64.1 27 -1.4 29.4
17:10 1019 30.09 848 25.04 17.9 64.2 26 -1.8 28.8
17:15 1019 30.09 848 25.04 18.6 65.4 26 -1.3 29.6
17:20 1019 30.09 848 25.04 18.3 64.9 28 -0.6 30.9
17:25 1019 30.09 848 25.04 17.8 64.1 28 -1 30.3
17:30 1019 30.09 848 25.04 17.6 63.7 28 -1.1 29.9
17:35 1019 30.09 848 25.04 17.5 63.4 29 -0.4 31.2
17:40 1019 30.09 848 25.04 17.5 63.5 28 -1.1 30
17:45 1019 30.09 848 25.04 17.6 63.7 28 -0.9 30.3
17:50 1019 30.09 848 25.04 17.7 63.8 28 -0.9 30.4
17:55 1019 30.09 848 25.04 17.8 64 28 -1.1 30.1
18:00 1019 30.09 848 25.04 17.8 64 27 -1.6 29.2
18:05 1019 30.09 848 25.04 17.6 63.6 30 -0.2 31.7
18:10 1019 30.09 848 25.04 17 62.5 30 -0.6 31
18:15 1019 30.09 848 25.04 16.8 62.2 30 -0.9 30.4
18:20 1019 30.09 848 25.04 17 62.5 29 -1 30.3
18:25 1019 30.09 848 25.04 17 62.6 30 -0.5 31.1
18:30 1019 30.09 848 25.04 16.9 62.4 28 -1.7 29
18:35 1019 30.09 848 25.04 17.1 62.7 28 -1.7 29
18:40 1019 30.09 848 25.04 17 62.6 29 -1.2 29.9
18:45 1019 30.09 848 25.04 16.7 62.1 29 -1.2 29.8
18:50 1019 30.09 848 25.04 16.7 62.1 28 -1.6 29.2
18:55 1019 30.09 848 25.04 16.8 62.2 29 -1.3 29.7
19:00 1019 30.09 849 25.07 16.8 62.2 28 -1.7 29
19:05 1019 30.09 849 25.07 16.8 62.2 29 -1.1 30
19:10 1019 30.09 849 25.07 16.7 62 29 -1.6 29.2
19:15 1019 30.09 849 25.07 16.5 61.7 30 -1 30.3
19:20 1019 30.09 849 25.07 16.5 61.6 31 -0.7 30.7
19:25 1019 30.09 849 25.07 16.3 61.3 32 -0.3 31.5
19:30 1019 30.09 849 25.07 15.6 60.1 35 0.4 32.7
19:35 1019 30.09 849 25.07 15.1 59.2 37 0.7 33.2
19:40 1019 30.09 848 25.04 14.9 58.9 37 0.6 33.1
19:45 1019 30.09 848 25.04 15.1 59.2 35 -0.1 31.7
19:50 1019 30.09 848 25.04 15.1 59.1 36 0.2 32.4
19:55 1019 30.09 849 25.07 14.9 58.7 37 0.2 32.4
20:00 1019 30.09 849 25.07 14.7 58.5 36 -0.2 31.7
20:05 1020 30.12 849 25.07 14.7 58.5 38 0.5 32.9
20:10 1020 30.12 849 25.07 14.6 58.2 39 0.8 33.4
20:15 1020 30.12 849 25.07 13.7 56.6 46 2.4 36.3
20:20 1020 30.12 849 25.07 12.8 55.1 45 1.2 34.2
20:25 1020 30.12 849 25.07 12.9 55.2 48 2.3 36.2
20:30 1020 30.12 850 25.1 12.6 54.6 49 2.2 36
20:35 1021 30.15 850 25.1 12.1 53.8 57 4 39.2
20:40 1020 30.12 850 25.1 11.4 52.4 62 4.4 40
20:45 1020 30.12 850 25.1 10.5 50.8 66 4.4 40
20:50 1021 30.15 850 25.1 9.8 49.6 69 4.3 39.8
20:55 1022 30.18 851 25.13 9.5 49 69 4.2 39.5
21:00 1022 30.18 851 25.13 9.7 49.5 68 4.2 39.5
21:05 1022 30.18 851 25.13 9.5 49.1 70 4.4 39.9
21:10 1022 30.18 851 25.13 8.9 48 73 4.4 39.9
21:15 1022 30.18 851 25.13 8.4 47.2 73 3.9 39.1
21:20 1022 30.18 851 25.13 8.2 46.7 74 3.9 39
21:25 1022 30.18 851 25.13 8 46.5 74 3.7 38.6
21:30 1022 30.18 851 25.13 8.1 46.5 74 3.7 38.7
21:35 1022 30.18 851 25.13 8.3 47 72 3.6 38.5
21:40 1023 30.21 852 25.16 8 46.5 74 3.7 38.6
21:45 1023 30.21 852 25.16 7.8 46.1 74 3.6 38.5
21:50 1023 30.21 852 25.16 7.7 45.9 75 3.5 38.3
21:55 1023 30.21 852 25.16 7.6 45.7 74 3.3 37.9
22:00 1023 30.21 852 25.16 7.6 45.6 73 3.1 37.6
22:05 1023 30.21 853 25.19 7.5 45.5 74 3.3 37.9
22:10 1023 30.21 853 25.19 6.9 44.5 78 3.3 38
22:15 1023 30.21 853 25.19 6.5 43.7 79 3.1 37.5
22:20 1023 30.21 853 25.19 6.3 43.4 79 2.9 37.2
22:25 1024 30.24 853 25.19 6.2 43.2 79 2.8 37.1
22:30 1024 30.24 853 25.19 6.1 42.9 80 2.8 37.1
22:35 1024 30.24 853 25.19 5.9 42.6 80 2.7 36.8
22:40 1024 30.24 853 25.19 5.7 42.3 80 2.6 36.6
22:45 1024 30.24 853 25.19 5.6 42.2 80 2.5 36.5
22:50 1024 30.24 853 25.19 5.5 41.9 80 2.4 36.3
22:55 1024 30.24 853 25.19 5.3 41.6 81 2.4 36.2
23:00 1024 30.24 853 25.19 5.2 41.3 81 2.2 36
23:05 1024 30.24 853 25.19 5.1 41.1 81 2.1 35.8
23:10 1024 30.24 853 25.19 5.1 41.2 81 2.1 35.8
23:15 1024 30.24 853 25.19 5 41.1 80 1.8 35.3
23:20 1024 30.24 854 25.22 5 41 79 1.7 35
23:25 1024 30.24 854 25.22 4.9 40.8 79 1.5 34.6
23:30 1024 30.24 854 25.22 4.7 40.4 79 1.4 34.5
23:35 1024 30.24 853 25.19 4.6 40.2 78 1.1 34
23:40 1024 30.24 853 25.19 4.5 40.1 78 1 33.7
23:45 1024 30.24 854 25.22 4.4 40 78 0.8 33.5
23:50 1024 30.24 854 25.22 4.3 39.8 77 0.7 33.2
23:55 1024 30.24 854 25.22 4.2 39.6 77 0.6 33
24:00 1024 30.24 854 25.22 4.1 39.3 77 0.4 32.8